createdAt,value
2022-11-02T00:02:35.073Z,71.04
2022-11-02T00:05:23.808Z,71.09
2022-11-02T00:08:06.786Z,71.15
2022-11-02T00:10:49.642Z,71.21
2022-11-02T00:13:35.835Z,71.42
2022-11-02T00:16:22.220Z,71.27
2022-11-02T00:19:05.525Z,71.27
2022-11-02T00:21:48.483Z,71.27
2022-11-02T00:24:33.532Z,71.25
2022-11-02T00:27:16.503Z,71.15
2022-11-02T00:30:00.042Z,71.10
2022-11-02T00:32:44.294Z,71.25
2022-11-02T00:35:27.180Z,71.34
2022-11-02T00:38:10.058Z,71.21
2022-11-02T00:40:52.945Z,71.47
2022-11-02T00:43:36.030Z,71.23
2022-11-02T00:46:20.212Z,71.34
2022-11-02T00:49:04.569Z,71.43
2022-11-02T00:51:50.386Z,71.48
2022-11-02T00:54:33.315Z,71.46
2022-11-02T00:57:16.175Z,71.64
2022-11-02T00:59:59.086Z,71.73
2022-11-02T01:02:42.591Z,71.54
2022-11-02T01:05:26.940Z,71.38
2022-11-02T01:08:09.828Z,71.32
2022-11-02T01:10:52.743Z,71.34
2022-11-02T01:13:35.629Z,71.52
2022-11-02T01:16:18.750Z,71.61
2022-11-02T01:19:01.689Z,71.45
2022-11-02T01:21:45.965Z,71.73
2022-11-02T01:24:28.928Z,71.54
2022-11-02T01:27:12.061Z,71.42
2022-11-02T01:29:55.036Z,71.32
2022-11-02T01:32:37.968Z,71.47
2022-11-02T01:35:20.869Z,71.54
2022-11-02T01:38:05.367Z,71.70
2022-11-02T01:40:48.618Z,72.03
2022-11-02T01:43:33.228Z,71.82
2022-11-02T01:46:19.888Z,71.75
2022-11-02T01:49:07.020Z,71.98
2022-11-02T01:51:56.239Z,72.11
2022-11-02T01:54:43.448Z,72.18
2022-11-02T01:57:28.463Z,72.26
2022-11-02T02:00:13.960Z,72.21
2022-11-02T02:03:02.012Z,72.00
2022-11-02T02:05:48.781Z,72.22
2022-11-02T02:08:38.555Z,72.21
2022-11-02T02:11:32.395Z,72.28
2022-11-02T02:14:17.766Z,72.14
2022-11-02T02:17:20.188Z,72.07
2022-11-02T02:20:10.805Z,72.21
2022-11-02T02:23:31.541Z,72.33
2022-11-02T02:26:57.191Z,72.27
2022-11-02T02:29:52.573Z,72.19
2022-11-02T02:32:43.073Z,72.15
2022-11-02T02:35:31.215Z,72.05
2022-11-02T02:38:23.325Z,72.51
2022-11-02T02:41:12.904Z,73.30
2022-11-02T02:43:58.343Z,73.37
2022-11-02T02:46:50.968Z,73.60
2022-11-02T02:49:39.957Z,73.82
2022-11-02T02:52:25.222Z,73.63
2022-11-02T02:55:09.341Z,74.84
2022-11-02T02:57:55.600Z,74.38
2022-11-02T03:00:39.835Z,74.25
2022-11-02T03:03:26.452Z,74.30
2022-11-02T03:06:18.540Z,74.42
2022-11-02T03:09:11.265Z,74.34
2022-11-02T03:12:05.817Z,74.23
2022-11-02T03:15:05.638Z,74.33
2022-11-02T03:18:06.200Z,74.40
2022-11-02T03:21:03.765Z,74.57
2022-11-02T03:23:53.719Z,74.24
2022-11-02T03:26:46.411Z,74.28
2022-11-02T03:29:39.520Z,74.40
2022-11-02T03:32:28.501Z,74.44
2022-11-02T03:35:19.960Z,74.36
2022-11-02T03:38:11.158Z,74.37
2022-11-02T03:40:57.217Z,74.42
2022-11-02T03:43:42.922Z,74.28
2022-11-02T03:46:27.708Z,74.36
2022-11-02T03:49:15.152Z,74.25
2022-11-02T03:52:06.078Z,74.27
2022-11-02T03:54:59.997Z,74.13
2022-11-02T03:57:47.553Z,74.16
2022-11-02T04:00:35.974Z,73.93
2022-11-02T04:03:25.385Z,74.04
2022-11-02T04:06:10.146Z,74.24
2022-11-02T04:08:53.203Z,74.13
2022-11-02T04:11:56.274Z,74.20
2022-11-02T04:14:39.291Z,74.28
2022-11-02T04:17:44.250Z,74.38
2022-11-02T04:20:30.409Z,74.39
2022-11-02T04:23:30.667Z,74.34
2022-11-02T04:26:13.568Z,74.46
2022-11-02T04:29:01.506Z,74.08
2022-11-02T04:31:45.533Z,74.17
2022-11-02T04:34:29.773Z,74.21
2022-11-02T04:37:26.904Z,74.19
2022-11-02T04:40:10.910Z,74.18
2022-11-02T04:42:53.893Z,74.40
2022-11-02T04:45:38.305Z,74.33
2022-11-02T04:48:21.252Z,74.07
2022-11-02T04:51:04.403Z,73.99
2022-11-02T04:53:48.258Z,74.04
2022-11-02T04:56:31.301Z,73.95
2022-11-02T04:59:14.261Z,73.97
2022-11-02T05:01:58.589Z,73.84
2022-11-02T05:04:41.807Z,73.79
2022-11-02T05:07:24.664Z,73.80
2022-11-02T05:10:09.106Z,73.94
2022-11-02T05:12:58.440Z,74.08
2022-11-02T05:15:44.584Z,73.96
2022-11-02T05:18:30.027Z,74.05
2022-11-02T05:21:14.479Z,73.86
2022-11-02T05:23:57.413Z,73.96
2022-11-02T05:26:40.499Z,73.81
2022-11-02T05:29:24.522Z,73.74
2022-11-02T05:32:08.630Z,73.70
2022-11-02T05:34:52.985Z,73.70
2022-11-02T05:37:35.972Z,73.80
2022-11-02T05:40:20.463Z,73.82
2022-11-02T05:43:05.208Z,73.89
2022-11-02T05:45:55.133Z,73.88
2022-11-02T05:48:38.015Z,73.85
2022-11-02T05:51:22.281Z,73.97
2022-11-02T05:54:05.482Z,73.80
2022-11-02T05:56:48.459Z,73.78
2022-11-02T05:59:31.362Z,73.60
2022-11-02T06:02:14.200Z,73.48
2022-11-02T06:04:57.187Z,73.36
2022-11-02T06:07:41.549Z,73.34
2022-11-02T06:10:24.451Z,73.15
2022-11-02T06:13:07.596Z,73.19
2022-11-02T06:15:50.553Z,73.32
2022-11-02T06:18:33.466Z,73.51
2022-11-02T06:21:16.381Z,73.52
2022-11-02T06:24:00.802Z,73.64
2022-11-02T06:26:43.704Z,73.99
2022-11-02T06:29:26.597Z,74.11
2022-11-02T06:32:09.444Z,74.32
2022-11-02T06:34:52.342Z,74.27
2022-11-02T06:37:35.906Z,74.38
2022-11-02T06:40:22.620Z,74.45
2022-11-02T06:43:23.020Z,74.34
2022-11-02T06:46:06.903Z,74.40
2022-11-02T06:48:49.814Z,74.54
2022-11-02T06:51:32.643Z,74.46
2022-11-02T06:54:15.563Z,74.61
2022-11-02T06:56:59.786Z,74.58
2022-11-02T06:59:42.680Z,74.60
2022-11-02T07:02:25.630Z,74.71
2022-11-02T07:05:09.378Z,74.57
2022-11-02T07:07:53.923Z,74.74
2022-11-02T07:10:36.886Z,74.71
2022-11-02T07:13:21.490Z,74.70
2022-11-02T07:16:04.393Z,74.70
2022-11-02T07:18:47.271Z,74.76
2022-11-02T07:21:30.154Z,74.82
2022-11-02T07:24:13.198Z,74.70
2022-11-02T07:26:56.231Z,74.60
2022-11-02T07:29:40.509Z,74.65
2022-11-02T07:32:23.366Z,74.72
2022-11-02T07:35:07.451Z,74.93
2022-11-02T07:37:57.588Z,75.25
2022-11-02T07:40:40.507Z,74.92
2022-11-02T07:43:24.049Z,74.74
2022-11-02T07:46:16.601Z,74.94
2022-11-02T07:48:59.253Z,75.06
2022-11-02T07:51:42.593Z,74.70
2022-11-02T07:54:26.546Z,74.61
2022-11-02T07:57:09.694Z,74.62
2022-11-02T07:59:52.639Z,74.52
2022-11-02T08:02:36.994Z,74.40
2022-11-02T08:05:19.917Z,73.94
2022-11-02T08:08:05.217Z,73.93
2022-11-02T08:10:50.160Z,73.97
2022-11-02T08:13:33.282Z,74.18
2022-11-02T08:16:16.121Z,74.25
2022-11-02T08:19:00.429Z,74.10
2022-11-02T08:21:43.340Z,73.64
2022-11-02T08:24:26.217Z,73.65
2022-11-02T08:27:09.074Z,73.56
2022-11-02T08:29:52.849Z,73.36
2022-11-02T08:32:35.742Z,73.18
2022-11-02T08:35:20.084Z,73.12
2022-11-02T08:38:03.661Z,73.42
2022-11-02T08:40:46.720Z,73.09
2022-11-02T08:43:29.812Z,72.87
2022-11-02T08:46:15.685Z,72.80
2022-11-02T08:48:59.637Z,72.70
2022-11-02T08:51:43.861Z,72.68
2022-11-02T08:54:26.749Z,71.84
2022-11-02T08:57:09.629Z,72.20
2022-11-02T08:59:52.477Z,72.41
2022-11-02T09:02:35.460Z,72.06
2022-11-02T09:05:18.582Z,72.16
2022-11-02T09:08:05.263Z,71.99
2022-11-02T09:10:51.129Z,71.50
2022-11-02T09:13:34.118Z,70.82
2022-11-02T09:16:17.001Z,70.15
2022-11-02T09:19:00.552Z,69.32
2022-11-02T09:21:43.472Z,70.18
2022-11-02T09:24:27.712Z,69.93
2022-11-02T09:27:10.553Z,69.21
2022-11-02T09:29:53.433Z,68.36
2022-11-02T09:32:36.444Z,68.04
2022-11-02T09:35:19.308Z,67.01
2022-11-02T09:38:02.257Z,66.79
2022-11-02T09:40:53.107Z,66.16
2022-11-02T09:43:46.493Z,65.63
2022-11-02T09:46:33.130Z,65.57
2022-11-02T09:49:18.842Z,64.58
2022-11-02T09:52:02.865Z,63.89
2022-11-02T09:54:50.528Z,63.42
2022-11-02T09:57:34.984Z,62.26
2022-11-02T10:00:18.617Z,62.05
2022-11-02T10:03:10.803Z,60.71
2022-11-02T10:05:59.797Z,59.52
2022-11-02T10:08:54.916Z,59.81
2022-11-02T10:11:43.772Z,57.87
2022-11-02T10:14:32.950Z,57.79
2022-11-02T10:17:21.621Z,58.28
2022-11-02T10:20:12.565Z,57.16
2022-11-02T10:23:03.542Z,57.62
2022-11-02T10:25:48.981Z,56.27
2022-11-02T10:28:35.250Z,56.36
2022-11-02T10:31:26.596Z,55.80
2022-11-02T10:34:22.783Z,56.12
2022-11-02T10:37:25.774Z,56.04
2022-11-02T10:40:23.829Z,55.47
2022-11-02T10:43:17.384Z,54.23
2022-11-02T10:46:13.080Z,54.74
2022-11-02T10:49:07.679Z,54.34
2022-11-02T10:51:51.360Z,54.17
2022-11-02T10:54:34.871Z,54.52
2022-11-02T10:57:24.519Z,53.55
2022-11-02T11:00:29.159Z,52.78
2022-11-02T11:03:14.434Z,53.62
2022-11-02T11:06:01.121Z,53.14
2022-11-02T11:08:45.906Z,52.77
2022-11-02T11:11:30.307Z,51.19
2022-11-02T11:20:34.520Z,53.00
2022-11-02T11:23:24.332Z,53.21
2022-11-02T11:26:13.064Z,52.23
2022-11-02T11:28:57.206Z,52.12
2022-11-02T11:31:40.134Z,52.41
2022-11-02T11:34:39.454Z,51.92
2022-11-02T11:37:23.324Z,52.21
2022-11-02T11:40:17.702Z,52.07
2022-11-02T11:43:02.362Z,51.09
2022-11-02T11:45:55.067Z,50.17
2022-11-02T11:48:40.776Z,51.05
2022-11-02T11:51:29.504Z,50.76
2022-11-02T11:54:22.222Z,51.05
2022-11-02T11:57:25.400Z,50.66
2022-11-02T12:00:28.402Z,51.28
2022-11-02T12:03:12.847Z,52.08
2022-11-02T12:06:05.108Z,51.07
2022-11-02T12:08:59.026Z,51.02
2022-11-02T12:11:54.710Z,51.20
2022-11-02T12:14:46.745Z,51.46
2022-11-02T12:17:41.454Z,51.27
2022-11-02T12:20:45.312Z,51.23
2022-11-02T12:23:51.665Z,51.07
2022-11-02T12:26:49.932Z,51.58
2022-11-02T12:29:54.678Z,51.17
2022-11-02T12:33:05.643Z,51.80
2022-11-02T12:35:58.346Z,52.26
2022-11-02T12:38:52.345Z,52.76
2022-11-02T12:41:54.095Z,53.76
2022-11-02T12:44:50.192Z,54.12
2022-11-02T12:47:49.625Z,54.32
2022-11-02T12:50:45.145Z,54.27
2022-11-02T12:53:39.271Z,54.29
2022-11-02T12:56:26.089Z,54.05
2022-11-02T12:59:15.808Z,54.24
2022-11-02T13:04:59.261Z,53.51
2022-11-02T13:07:47.048Z,53.15
2022-11-02T13:10:34.346Z,53.45
2022-11-02T13:13:21.558Z,53.12
2022-11-02T13:16:07.314Z,53.54
2022-11-02T13:18:54.073Z,53.53
2022-11-02T13:21:44.151Z,53.59
2022-11-02T13:24:32.303Z,53.52
2022-11-02T13:27:36.783Z,53.53
2022-11-02T13:30:21.063Z,53.38
2022-11-02T13:33:10.176Z,53.64
2022-11-02T13:35:54.744Z,53.54
2022-11-02T13:38:44.035Z,53.67
2022-11-02T13:41:51.381Z,53.97
2022-11-02T13:45:18.508Z,53.78
2022-11-02T13:48:27.610Z,53.78
2022-11-02T13:51:24.648Z,53.96
2022-11-02T13:54:15.373Z,53.90
2022-11-02T13:56:59.913Z,53.93
2022-11-02T13:59:48.522Z,54.21
2022-11-02T14:02:36.777Z,54.27
2022-11-02T14:05:28.935Z,54.59
2022-11-02T14:08:22.462Z,54.38
2022-11-02T14:11:27.926Z,54.63
2022-11-02T14:14:24.138Z,54.79
2022-11-02T14:17:15.252Z,54.90
2022-11-02T14:20:04.619Z,54.87
2022-11-02T14:23:31.351Z,54.92
2022-11-02T14:26:54.639Z,54.92
2022-11-02T14:29:39.980Z,55.03
2022-11-02T14:32:43.793Z,55.49
2022-11-02T14:35:41.664Z,55.44
2022-11-02T14:38:59.426Z,55.78
2022-11-02T14:42:01.564Z,56.03
2022-11-02T14:45:08.751Z,56.09
2022-11-02T14:47:58.827Z,56.23
2022-11-02T14:50:41.932Z,56.17
2022-11-02T14:53:27.467Z,56.36
2022-11-02T14:56:10.440Z,56.60
2022-11-02T14:58:57.697Z,56.52
2022-11-02T15:01:52.620Z,56.74
2022-11-02T15:04:36.579Z,56.77
2022-11-02T15:07:23.707Z,56.76
2022-11-02T15:10:35.754Z,56.97
2022-11-02T15:13:35.550Z,57.37
2022-11-02T15:16:25.758Z,57.53
2022-11-02T15:19:37.601Z,57.63
2022-11-02T15:22:39.838Z,57.53
2022-11-02T15:25:27.444Z,57.61
2022-11-02T15:28:16.043Z,57.35
2022-11-02T15:31:02.976Z,57.47
2022-11-02T15:33:50.414Z,57.51
2022-11-02T15:36:36.643Z,57.46
2022-11-02T15:39:19.920Z,57.71
2022-11-02T15:42:05.880Z,57.85
2022-11-02T15:45:46.463Z,57.85
2022-11-02T15:48:36.873Z,58.25
2022-11-02T15:51:30.645Z,58.38
2022-11-02T15:54:24.626Z,58.44
2022-11-02T15:57:20.615Z,58.54
2022-11-02T16:00:18.600Z,58.82
2022-11-02T16:03:04.015Z,58.97
2022-11-02T16:05:51.295Z,59.09
2022-11-02T16:08:37.964Z,59.27
2022-11-02T16:11:21.408Z,59.08
2022-11-02T16:14:17.570Z,59.40
2022-11-02T16:17:00.424Z,59.40
2022-11-02T16:19:43.337Z,59.47
2022-11-02T16:22:27.981Z,59.61
2022-11-02T16:25:18.765Z,59.75
2022-11-02T16:28:14.995Z,59.90
2022-11-02T16:31:12.438Z,60.35
2022-11-02T16:34:00.445Z,59.86
2022-11-02T16:36:43.663Z,59.97
2022-11-02T16:39:30.349Z,59.84
2022-11-02T16:42:19.005Z,60.25
2022-11-02T16:45:04.767Z,60.47
2022-11-02T16:47:47.686Z,60.74
2022-11-02T16:50:30.720Z,60.59
2022-11-02T16:53:29.233Z,60.91
2022-11-02T16:56:27.656Z,60.73
2022-11-02T16:59:16.262Z,60.89
2022-11-02T17:02:01.643Z,61.13
2022-11-02T17:04:48.103Z,60.91
2022-11-02T17:07:34.025Z,61.26
2022-11-02T17:10:21.985Z,61.59
2022-11-02T17:13:07.613Z,61.31
2022-11-02T17:15:53.405Z,61.57
2022-11-02T17:18:36.626Z,61.91
2022-11-02T17:21:31.118Z,61.89
2022-11-02T17:24:30.980Z,62.20
2022-11-02T17:27:18.698Z,62.09
2022-11-02T17:30:01.789Z,62.25
2022-11-02T17:32:46.335Z,62.51
2022-11-02T17:35:29.355Z,62.81
2022-11-02T17:38:12.781Z,62.99
2022-11-02T17:40:56.368Z,63.19
2022-11-02T17:43:38.312Z,63.06
2022-11-02T17:46:21.313Z,63.21
2022-11-02T17:49:05.554Z,63.29
2022-11-02T17:51:48.880Z,63.34
2022-11-02T17:54:31.909Z,63.49
2022-11-02T17:57:16.063Z,63.39
2022-11-02T17:59:58.952Z,63.50
2022-11-02T18:02:42.317Z,63.62
2022-11-02T18:05:28.604Z,64.03
2022-11-02T18:08:11.680Z,64.09
2022-11-02T18:10:54.712Z,64.10
2022-11-02T18:13:37.731Z,64.38
2022-11-02T18:16:20.773Z,64.29
2022-11-02T18:19:03.670Z,64.38
2022-11-02T18:21:49.704Z,64.60
2022-11-02T18:24:33.493Z,64.67
2022-11-02T18:27:16.459Z,64.83
2022-11-02T18:29:59.424Z,64.60
2022-11-02T18:32:44.119Z,64.94
2022-11-02T18:35:27.322Z,64.77
2022-11-02T18:38:11.653Z,64.75
2022-11-02T18:40:54.531Z,64.71
2022-11-02T18:43:37.398Z,65.27
2022-11-02T18:46:20.435Z,65.85
2022-11-02T18:49:03.650Z,65.91
2022-11-02T18:51:47.672Z,65.87
2022-11-02T18:54:32.236Z,65.91
2022-11-02T18:57:15.142Z,65.85
2022-11-02T18:59:58.155Z,65.82
2022-11-02T19:02:41.796Z,66.12
2022-11-02T19:05:42.766Z,65.93
2022-11-02T19:08:43.416Z,66.02
2022-11-02T19:11:27.921Z,66.10
2022-11-02T19:14:10.825Z,66.26
2022-11-02T19:16:53.863Z,66.61
2022-11-02T19:19:37.608Z,66.85
2022-11-02T19:22:22.901Z,66.91
2022-11-02T19:25:06.499Z,67.10
2022-11-02T19:27:50.771Z,67.08
2022-11-02T19:30:33.908Z,66.96
2022-11-02T19:33:16.797Z,66.97
2022-11-02T19:35:59.920Z,67.01
2022-11-02T19:38:42.782Z,67.15
2022-11-02T19:41:25.722Z,67.29
2022-11-02T19:44:09.990Z,67.39
2022-11-02T19:46:53.168Z,67.78
2022-11-02T19:49:36.024Z,67.88
2022-11-02T19:52:19.013Z,67.68
2022-11-02T19:55:01.993Z,67.84
2022-11-02T19:57:44.958Z,67.91
2022-11-02T20:00:29.325Z,67.83
2022-11-02T20:03:12.727Z,67.92
2022-11-02T20:06:00.604Z,67.67
2022-11-02T20:08:44.019Z,67.37
2022-11-02T20:11:28.486Z,67.37
2022-11-02T20:14:12.459Z,67.98
2022-11-02T20:17:10.576Z,67.81
2022-11-02T20:19:53.805Z,68.08
2022-11-02T20:22:38.573Z,68.10
2022-11-02T20:25:22.934Z,68.00
2022-11-02T20:28:06.470Z,68.05
2022-11-02T20:30:49.885Z,68.06
2022-11-02T20:33:34.897Z,67.71
2022-11-02T20:36:17.854Z,68.08
2022-11-02T20:39:03.298Z,67.93
2022-11-02T20:41:46.174Z,67.94
2022-11-02T20:44:29.029Z,67.95
2022-11-02T20:47:11.952Z,68.58
2022-11-02T20:49:56.162Z,68.76
2022-11-02T20:52:39.017Z,68.90
2022-11-02T20:55:22.341Z,68.89
2022-11-02T20:58:05.276Z,68.92
2022-11-02T21:00:48.905Z,69.01
2022-11-02T21:03:31.821Z,69.05
2022-11-02T21:06:16.006Z,69.09
2022-11-02T21:08:59.552Z,69.10
2022-11-02T21:12:00.019Z,69.30
2022-11-02T21:14:42.942Z,69.17
2022-11-02T21:17:25.857Z,69.24
2022-11-02T21:23:14.521Z,69.62
2022-11-02T21:25:59.758Z,69.58
2022-11-02T21:28:44.642Z,69.62
2022-11-02T21:31:27.564Z,69.58
2022-11-02T21:34:10.425Z,69.84
2022-11-02T21:36:53.512Z,69.67
2022-11-02T21:39:38.003Z,69.82
2022-11-02T21:42:20.854Z,69.87
2022-11-02T21:45:04.592Z,69.97
2022-11-02T21:47:50.531Z,70.08
2022-11-02T21:50:33.420Z,69.95
2022-11-02T21:53:16.271Z,69.90
2022-11-02T21:56:02.284Z,69.86
2022-11-02T21:58:46.578Z,70.21
2022-11-02T22:01:47.144Z,70.24
2022-11-02T22:04:32.068Z,70.08
2022-11-02T22:07:15.115Z,70.11
2022-11-02T22:09:57.985Z,70.01
2022-11-02T22:12:59.832Z,70.09
2022-11-02T22:15:42.698Z,69.97
2022-11-02T22:18:25.537Z,69.82
2022-11-02T22:21:08.591Z,70.16
2022-11-02T22:23:52.746Z,70.13
2022-11-02T22:26:37.475Z,70.06
2022-11-02T22:29:21.792Z,70.42
2022-11-02T22:32:04.664Z,69.72
2022-11-02T22:34:47.957Z,69.87
2022-11-02T22:37:48.433Z,69.95
2022-11-02T22:40:31.327Z,69.67
2022-11-02T22:43:14.226Z,69.63
2022-11-02T22:46:02.447Z,69.67
2022-11-02T22:48:45.371Z,69.62
2022-11-02T22:51:30.151Z,69.60
2022-11-02T22:54:15.654Z,69.61
2022-11-02T22:56:58.611Z,69.56
2022-11-02T22:59:41.589Z,69.26
2022-11-02T23:02:26.053Z,69.38
2022-11-02T23:05:09.741Z,69.48
2022-11-02T23:07:52.650Z,69.49
2022-11-02T23:10:54.661Z,69.72
2022-11-02T23:13:37.622Z,69.58
2022-11-02T23:16:22.998Z,69.58
2022-11-02T23:19:28.356Z,69.77
2022-11-02T23:22:31.151Z,69.65
2022-11-02T23:25:15.247Z,69.76
2022-11-02T23:28:16.570Z,69.81
2022-11-02T23:31:16.924Z,69.55
2022-11-02T23:33:59.777Z,69.86
2022-11-02T23:36:43.425Z,70.12
2022-11-02T23:39:42.813Z,70.08
2022-11-02T23:42:25.742Z,70.26
2022-11-02T23:45:10.364Z,70.34
2022-11-02T23:48:01.280Z,70.50
2022-11-02T23:51:01.592Z,70.15
2022-11-02T23:54:03.551Z,70.48
2022-11-02T23:56:46.472Z,70.07
2022-11-02T23:59:29.740Z,70.63
